Time;durP1;ratioP1;P1;durP2;ratioP2;P2;SDS_P1;SDS_P2;PMS_P1;PMS_P2;Temp;Humidity;BMP_temperature;BMP_pressure;BME280_temperature;BME280_humidity;BME280_pressure;Samples;Min_cycle;Max_cycle;Signal;HPM_P1;HPM_P2
2023/11/26 00:00:35;;;;;;;;;;;;;;;;;;5083647;28;20415;-77
2023/11/26 00:03:02;;;;;;;;;;;;;;;;;;5083104;28;19950;-79
2023/11/26 00:05:28;;;;;;;;;;;;;;;;;;5087278;28;19982;-79
2023/11/26 00:07:54;;;;;;;;;;;;;;;;;;5085862;28;20282;-79
2023/11/26 00:10:20;;;;;;;;;;;;;;;;;;5087483;28;19947;-78
2023/11/26 00:12:46;;;;;;;;;;;;;;;;;;5086291;28;20412;-78
2023/11/26 00:15:13;;;;;;;;;;;;;;;;;;5088838;28;19966;-78
2023/11/26 00:17:39;;;;;;;;;;;;;;;;;;5077160;28;19951;-76
2023/11/26 00:20:06;;;;;;;;;;;;;;;;;;5069423;28;19971;-77
2023/11/26 00:22:32;;;;;;;;;;;;;;;;;;5082150;28;19953;-78
2023/11/26 00:24:58;;;;;;;;;;;;;;;;;;5086757;28;19921;-79
2023/11/26 00:27:25;;;;;;;;;;;;;;;;;;5085549;28;20318;-77
2023/11/26 00:29:51;;;;;;;;;;;;;;;;;;5087006;28;19935;-77
2023/11/26 00:32:17;;;;;;;;;;;;;;;;;;5081568;28;19926;-77
2023/11/26 00:34:43;;;;;;;;;;;;;;;;;;5080757;28;20013;-77
2023/11/26 00:37:09;;;;;;;;;;;;;;;;;;5085190;28;20012;-78
2023/11/26 00:39:35;;;;;;;;;;;;;;;;;;5086706;28;20263;-77
2023/11/26 00:42:01;;;;;;;;;;;;;;;;;;5085444;28;19969;-78
2023/11/26 00:44:27;;;;;;;;;;;;;;;;;;5088310;28;19939;-77
2023/11/26 00:46:53;;;;;;;;;;;;;;;;;;5082734;28;19912;-78
2023/11/26 00:49:19;;;;;;;;;;;;;;;;;;5069924;28;20312;-77
2023/11/26 00:51:45;;;;;;;;;;;;;;;;;;5079045;28;19911;-78
2023/11/26 00:54:11;;;;;;;;;;;;;;;;;;5089544;28;19966;-78
2023/11/26 00:56:37;;;;;;;;;;;;;;;;;;5088424;28;19962;-78
2023/11/26 00:59:03;;;;;;;;;;;;;;;;;;5090913;28;19951;-78
2023/11/26 01:01:29;;;;;;;;;;;;;;;;;;5089886;28;19951;-79
2023/11/26 01:03:55;;;;;;;;;;;;;;;;;;5090136;28;19911;-79
2023/11/26 01:06:21;;;;;;;;;;;;;;;;;;5088271;28;19986;-81
2023/11/26 01:08:48;;;;;;;;;;;;;;;;;;5085908;28;20087;-79
2023/11/26 01:11:13;;;;;;;;;;;;;;;;;;5088193;28;20001;-79
2023/11/26 01:13:39;;;;;;;;;;;;;;;;;;5083493;28;20379;-79
2023/11/26 01:16:05;;;;;;;;;;;;;;;;;;5085962;28;19962;-78
2023/11/26 01:18:31;;;;;;;;;;;;;;;;;;5071825;28;19982;-79
2023/11/26 01:20:57;;;;;;;;;;;;;;;;;;5090781;28;20360;-79
2023/11/26 01:23:23;;;;;;;;;;;;;;;;;;5061465;28;20371;-78
2023/11/26 01:25:49;;;;;;;;;;;;;;;;;;5084489;28;19908;-78
2023/11/26 01:28:15;;;;;;;;;;;;;;;;;;5088599;28;19958;-78
2023/11/26 01:30:41;;;;;;;;;;;;;;;;;;5080525;28;19947;-78
2023/11/26 01:33:07;;;;;;;;;;;;;;;;;;5089849;28;19911;-79
2023/11/26 01:35:34;;;;;;;;;;;;;;;;;;5091132;28;20235;-80
2023/11/26 01:38:00;;;;;;;;;;;;;;;;;;5087953;28;20003;-78
2023/11/26 01:40:26;;;;;;;;;;;;;;;;;;5090769;28;19965;-78
2023/11/26 01:42:52;;;;;;;;;;;;;;;;;;5084192;28;19939;-77
2023/11/26 01:45:18;;;;;;;;;;;;;;;;;;5087078;28;19971;-81
2023/11/26 01:47:44;;;;;;;;;;;;;;;;;;5071718;28;20378;-79
2023/11/26 01:50:10;;;;;;;;;;;;;;;;;;5090127;28;19994;-78
2023/11/26 01:52:36;;;;;;;;;;;;;;;;;;5085896;28;19978;-80
2023/11/26 01:55:02;;;;;;;;;;;;;;;;;;5090951;28;20096;-78
2023/11/26 01:57:27;;;;;;;;;;;;;;;;;;5086256;28;19995;-79
2023/11/26 01:59:54;;;;;;;;;;;;;;;;;;5089677;28;19916;-79
2023/11/26 02:02:20;;;;;;;;;;;;;;;;;;5085086;28;19915;-79
2023/11/26 02:04:46;;;;;;;;;;;;;;;;;;5086584;28;19908;-79
2023/11/26 02:07:11;;;;;;;;;;;;;;;;;;5082969;28;20026;-79
2023/11/26 02:09:37;;;;;;;;;;;;;;;;;;5070396;28;19974;-80
2023/11/26 02:12:03;;;;;;;;;;;;;;;;;;5087713;28;19936;-82
2023/11/26 02:14:30;;;;;;;;;;;;;;;;;;5090188;28;19916;-83
2023/11/26 02:16:56;;;;;;;;;;;;;;;;;;5087625;28;19915;-83
2023/11/26 02:19:22;;;;;;;;;;;;;;;;;;5090396;28;19986;-83
2023/11/26 02:21:48;;;;;;;;;;;;;;;;;;5082942;28;19968;-83
2023/11/26 02:24:14;;;;;;;;;;;;;;;;;;5090518;28;19942;-83
2023/11/26 02:26:40;;;;;;;;;;;;;;;;;;5083025;28;20354;-83
2023/11/26 02:29:08;;;;;;;;;;;;;;;;;;5090537;28;20402;-83
2023/11/26 02:31:34;;;;;;;;;;;;;;;;;;5088772;28;19955;-82
2023/11/26 02:34:00;;;;;;;;;;;;;;;;;;5090224;28;19977;-83
2023/11/26 02:36:26;;;;;;;;;;;;;;;;;;5068562;28;20332;-83
2023/11/26 02:38:52;;;;;;;;;;;;;;;;;;5089022;28;20302;-83
2023/11/26 02:41:18;;;;;;;;;;;;;;;;;;5086212;28;20121;-83
2023/11/26 02:43:44;;;;;;;;;;;;;;;;;;5083781;28;19961;-83
2023/11/26 02:46:10;;;;;;;;;;;;;;;;;;5083021;28;20327;-82
2023/11/26 02:48:36;;;;;;;;;;;;;;;;;;5085131;28;19912;-83
2023/11/26 02:51:02;;;;;;;;;;;;;;;;;;5083821;28;19928;-83
2023/11/26 02:53:28;;;;;;;;;;;;;;;;;;5087947;28;20425;-83
2023/11/26 02:55:54;;;;;;;;;;;;;;;;;;5088855;28;20348;-83
2023/11/26 02:58:20;;;;;;;;;;;;;;;;;;5088473;28;20401;-83
2023/11/26 03:00:47;;;;;;;;;;;;;;;;;;5082592;28;20363;-83
2023/11/26 03:03:13;;;;;;;;;;;;;;;;;;5085109;28;19919;-82
2023/11/26 03:05:39;;;;;;;;;;;;;;;;;;5086603;28;19951;-83
2023/11/26 03:08:20;;;;;;;;;;;;;;;;;;5085322;28;19918;-83
2023/11/26 03:13:31;;;;;;;;;;;;;;;;;;5075525;28;19969;-83
2023/11/26 03:15:57;;;;;;;;;;;;;;;;;;5081668;28;19985;-83
2023/11/26 03:18:23;;;;;;;;;;;;;;;;;;5063933;28;20367;-83
2023/11/26 03:20:52;;;;;;;;;;;;;;;;;;5071012;28;20019;-79
2023/11/26 03:23:19;;;;;;;;;;;;;;;;;;5062211;28;19948;-78
2023/11/26 03:25:45;;;;;;;;;;;;;;;;;;5084609;28;19954;-79
2023/11/26 03:28:13;;;;;;;;;;;;;;;;;;5059960;28;19955;-79
2023/11/26 03:30:39;;;;;;;;;;;;;;;;;;5082003;28;19912;-78
2023/11/26 03:33:07;;;;;;;;;;;;;;;;;;5083561;28;20338;-78
2023/11/26 03:35:33;;;;;;;;;;;;;;;;;;5083362;28;19912;-79
2023/11/26 03:37:59;;;;;;;;;;;;;;;;;;5058137;28;19917;-80
2023/11/26 03:40:25;;;;;;;;;;;;;;;;;;5086960;28;19908;-78
2023/11/26 03:42:51;;;;;;;;;;;;;;;;;;5086939;28;20022;-79
2023/11/26 03:45:17;;;;;;;;;;;;;;;;;;5087807;28;20010;-78
2023/11/26 03:47:43;;;;;;;;;;;;;;;;;;5079672;28;20019;-77
2023/11/26 03:50:12;;;;;;;;;;;;;;;;;;5087354;28;19948;-78
2023/11/26 03:52:38;;;;;;;;;;;;;;;;;;5082062;28;20344;-79
2023/11/26 03:55:04;;;;;;;;;;;;;;;;;;5081734;28;19986;-79
2023/11/26 03:57:30;;;;;;;;;;;;;;;;;;5064062;28;19995;-80
2023/11/26 03:59:57;;;;;;;;;;;;;;;;;;5086930;28;20026;-79
2023/11/26 04:02:23;;;;;;;;;;;;;;;;;;5087604;28;19915;-77
2023/11/26 04:04:51;;;;;;;;;;;;;;;;;;5085491;28;19918;-78
2023/11/26 04:07:17;;;;;;;;;;;;;;;;;;5081540;28;20327;-78
2023/11/26 04:09:43;;;;;;;;;;;;;;;;;;5086783;28;19934;-80
2023/11/26 04:12:09;;;;;;;;;;;;;;;;;;5085646;28;19937;-78
2023/11/26 04:14:35;;;;;;;;;;;;;;;;;;5088954;28;19955;-77
2023/11/26 04:17:00;;;;;;;;;;;;;;;;;;5086636;28;19914;-78
2023/11/26 04:19:26;;;;;;;;;;;;;;;;;;5083851;28;20423;-78
2023/11/26 04:21:52;;;;;;;;;;;;;;;;;;5074882;28;19946;-77
2023/11/26 04:24:18;;;;;;;;;;;;;;;;;;5070204;28;19970;-78
2023/11/26 04:26:44;;;;;;;;;;;;;;;;;;5085557;28;20139;-78
2023/11/26 04:29:13;;;;;;;;;;;;;;;;;;5083389;28;19952;-79
2023/11/26 04:31:39;;;;;;;;;;;;;;;;;;5090900;28;20015;-79
2023/11/26 04:34:05;;;;;;;;;;;;;;;;;;5091181;28;20061;-78
2023/11/26 04:36:31;;;;;;;;;;;;;;;;;;5085991;28;20321;-78
2023/11/26 04:38:57;;;;;;;;;;;;;;;;;;5085562;28;20003;-78
2023/11/26 04:41:23;;;;;;;;;;;;;;;;;;5091729;28;19965;-78
2023/11/26 04:43:49;;;;;;;;;;;;;;;;;;5090893;28;19962;-78
2023/11/26 04:46:15;;;;;;;;;;;;;;;;;;5086167;28;20001;-79
2023/11/26 04:48:42;;;;;;;;;;;;;;;;;;5090612;28;19945;-78
2023/11/26 04:51:08;;;;;;;;;;;;;;;;;;5084104;28;19916;-79
2023/11/26 04:53:34;;;;;;;;;;;;;;;;;;5086449;28;19993;-78
2023/11/26 04:56:00;;;;;;;;;;;;;;;;;;5091623;28;19908;-79
2023/11/26 04:58:26;;;;;;;;;;;;;;;;;;5066047;28;19943;-79
2023/11/26 05:00:52;;;;;;;;;;;;;;;;;;5089132;28;20351;-79
2023/11/26 05:03:18;;;;;;;;;;;;;;;;;;5091084;28;19947;-79
2023/11/26 05:05:44;;;;;;;;;;;;;;;;;;5085432;28;20065;-79
2023/11/26 05:08:10;;;;;;;;;;;;;;;;;;5088392;28;19974;-78
2023/11/26 05:10:36;;;;;;;;;;;;;;;;;;5090121;28;19959;-78
2023/11/26 05:13:02;;;;;;;;;;;;;;;;;;5085648;28;20732;-78
2023/11/26 05:15:28;;;;;;;;;;;;;;;;;;5087713;28;20447;-80
2023/11/26 05:17:55;;;;;;;;;;;;;;;;;;5083226;28;19904;-79
2023/11/26 05:20:22;;;;;;;;;;;;;;;;;;5081885;28;19912;-81
2023/11/26 05:22:47;;;;;;;;;;;;;;;;;;5090113;28;19965;-78
2023/11/26 05:25:14;;;;;;;;;;;;;;;;;;5091295;28;19912;-79
2023/11/26 05:27:40;;;;;;;;;;;;;;;;;;5087926;28;19908;-79
2023/11/26 05:30:06;;;;;;;;;;;;;;;;;;5088446;28;19934;-80
2023/11/26 05:32:32;;;;;;;;;;;;;;;;;;5088321;28;19934;-79
2023/11/26 05:34:58;;;;;;;;;;;;;;;;;;5086495;28;19995;-79
2023/11/26 05:37:24;;;;;;;;;;;;;;;;;;5085181;28;20408;-80
2023/11/26 05:39:50;;;;;;;;;;;;;;;;;;5081152;28;19951;-79
2023/11/26 05:42:16;;;;;;;;;;;;;;;;;;5083535;28;19944;-79
2023/11/26 05:44:42;;;;;;;;;;;;;;;;;;5090612;28;19943;-79
2023/11/26 05:47:08;;;;;;;;;;;;;;;;;;5082585;28;20005;-79
2023/11/26 05:49:34;;;;;;;;;;;;;;;;;;5087705;28;19950;-80
2023/11/26 05:52:00;;;;;;;;;;;;;;;;;;5082203;28;19958;-83
2023/11/26 05:54:26;;;;;;;;;;;;;;;;;;5072777;28;19916;-83
2023/11/26 05:56:52;;;;;;;;;;;;;;;;;;5087937;28;19949;-83
2023/11/26 05:59:18;;;;;;;;;;;;;;;;;;5089200;28;19989;-83
2023/11/26 06:01:44;;;;;;;;;;;;;;;;;;5088362;28;19904;-83
2023/11/26 06:04:10;;;;;;;;;;;;;;;;;;5090115;28;20252;-84
2023/11/26 06:06:36;;;;;;;;;;;;;;;;;;5089360;28;20378;-84
2023/11/26 06:09:02;;;;;;;;;;;;;;;;;;5085027;28;19959;-83
2023/11/26 06:11:28;;;;;;;;;;;;;;;;;;5064617;28;19939;-83
2023/11/26 06:13:54;;;;;;;;;;;;;;;;;;5089552;28;20008;-83
2023/11/26 06:16:20;;;;;;;;;;;;;;;;;;5090345;28;20042;-84
2023/11/26 06:18:46;;;;;;;;;;;;;;;;;;5085103;28;19947;-83
2023/11/26 06:21:12;;;;;;;;;;;;;;;;;;5086364;28;19939;-83
2023/11/26 06:23:38;;;;;;;;;;;;;;;;;;5086884;28;19955;-82
2023/11/26 06:26:03;;;;;;;;;;;;;;;;;;5083882;28;19959;-79
2023/11/26 06:28:30;;;;;;;;;;;;;;;;;;5082803;28;19946;-85
2023/11/26 06:30:55;;;;;;;;;;;;;;;;;;5083766;28;19912;-81
2023/11/26 06:33:22;;;;;;;;;;;;;;;;;;5068594;28;20012;-81
2023/11/26 06:35:48;;;;;;;;;;;;;;;;;;5080810;28;19908;-81
2023/11/26 06:38:14;;;;;;;;;;;;;;;;;;5079854;28;19967;-82
2023/11/26 06:40:40;;;;;;;;;;;;;;;;;;5061842;28;20373;-83
2023/11/26 06:43:06;;;;;;;;;;;;;;;;;;5087919;28;19957;-84
2023/11/26 06:45:32;;;;;;;;;;;;;;;;;;5083780;28;20367;-83
2023/11/26 06:47:58;;;;;;;;;;;;;;;;;;5078812;28;19977;-83
2023/11/26 06:50:24;;;;;;;;;;;;;;;;;;5084328;28;19951;-82
2023/11/26 06:52:50;;;;;;;;;;;;;;;;;;5087782;28;20024;-82
2023/11/26 06:55:16;;;;;;;;;;;;;;;;;;5088215;28;19931;-81
2023/11/26 06:57:42;;;;;;;;;;;;;;;;;;5086894;28;20347;-81
2023/11/26 07:00:09;;;;;;;;;;;;;;;;;;5083281;28;20014;-82
2023/11/26 07:02:35;;;;;;;;;;;;;;;;;;5064636;28;20314;-77
2023/11/26 07:05:01;;;;;;;;;;;;;;;;;;5070804;28;19912;-77
2023/11/26 07:07:27;;;;;;;;;;;;;;;;;;5084757;28;19914;-77
2023/11/26 07:09:53;;;;;;;;;;;;;;;;;;5088135;28;20037;-78
2023/11/26 07:12:19;;;;;;;;;;;;;;;;;;5087429;28;19973;-78
2023/11/26 07:14:45;;;;;;;;;;;;;;;;;;5090057;28;19970;-77
2023/11/26 07:17:11;;;;;;;;;;;;;;;;;;5089602;28;19951;-77
2023/11/26 07:19:37;;;;;;;;;;;;;;;;;;5089299;28;20364;-77
2023/11/26 07:22:04;;;;;;;;;;;;;;;;;;5079065;28;19922;-78
2023/11/26 07:24:30;;;;;;;;;;;;;;;;;;5086586;28;19944;-77
2023/11/26 07:26:55;;;;;;;;;;;;;;;;;;5087888;28;19954;-80
2023/11/26 07:29:22;;;;;;;;;;;;;;;;;;5084756;28;19951;-80
2023/11/26 07:31:48;;;;;;;;;;;;;;;;;;5081835;28;19951;-79
2023/11/26 07:34:14;;;;;;;;;;;;;;;;;;5081599;28;19912;-79
2023/11/26 07:36:42;;;;;;;;;;;;;;;;;;5084101;28;20023;-81
2023/11/26 07:39:08;;;;;;;;;;;;;;;;;;5089030;28;19912;-80
2023/11/26 07:41:34;;;;;;;;;;;;;;;;;;5086943;28;19980;-79
2023/11/26 07:44:00;;;;;;;;;;;;;;;;;;5089390;28;20002;-80
2023/11/26 07:46:26;;;;;;;;;;;;;;;;;;5081961;28;19958;-80
2023/11/26 07:48:52;;;;;;;;;;;;;;;;;;5081745;28;19912;-82
2023/11/26 07:51:18;;;;;;;;;;;;;;;;;;5071801;28;19977;-81
2023/11/26 07:53:44;;;;;;;;;;;;;;;;;;5079468;28;19916;-80
2023/11/26 07:56:10;;;;;;;;;;;;;;;;;;5087597;28;20276;-79
2023/11/26 07:58:36;;;;;;;;;;;;;;;;;;5081080;28;19914;-79
2023/11/26 08:01:02;;;;;;;;;;;;;;;;;;5081272;28;19912;-80
2023/11/26 08:03:28;;;;;;;;;;;;;;;;;;5079708;28;19908;-80
2023/11/26 08:05:54;;;;;;;;;;;;;;;;;;5081337;28;19996;-78
2023/11/26 08:08:23;;;;;;;;;;;;;;;;;;5076821;28;19955;-80
2023/11/26 08:10:49;;;;;;;;;;;;;;;;;;5086948;28;20393;-82
2023/11/26 08:13:15;;;;;;;;;;;;;;;;;;5081562;28;19912;-80
2023/11/26 08:15:41;;;;;;;;;;;;;;;;;;5088146;28;19966;-76
2023/11/26 08:18:07;;;;;;;;;;;;;;;;;;5083759;28;20375;-86
2023/11/26 08:20:33;;;;;;;;;;;;;;;;;;5070477;28;19951;-80
2023/11/26 08:23:02;;;;;;;;;;;;;;;;;;5087954;28;19994;-79
2023/11/26 08:25:33;;;;;;;;;;;;;;;;;;5079158;28;20503;-80
2023/11/26 08:28:00;;;;;;;;;;;;;;;;;;5070522;28;20003;-79
2023/11/26 08:30:39;;;;;;;;;;;;;;;;;;5088605;28;20359;-79
2023/11/26 08:33:09;;;;;;;;;;;;;;;;;;5080239;28;20319;-79
2023/11/26 08:35:36;;;;;;;;;;;;;;;;;;5081211;28;19993;-78
2023/11/26 08:38:02;;;;;;;;;;;;;;;;;;5085040;28;19951;-78
2023/11/26 08:40:33;;;;;;;;;;;;;;;;;;5081527;28;19908;-78
2023/11/26 08:42:59;;;;;;;;;;;;;;;;;;5074755;28;20640;-78
2023/11/26 08:45:25;;;;;;;;;;;;;;;;;;5068369;28;20006;-79
2023/11/26 08:47:53;;;;;;;;;;;;;;;;;;5088393;28;19908;-79
2023/11/26 08:50:19;;;;;;;;;;;;;;;;;;5088054;28;19995;-79
2023/11/26 08:52:44;;;;;;;;;;;;;;;;;;5081624;28;20058;-79
2023/11/26 08:55:11;;;;;;;;;;;;;;;;;;5089221;28;19970;-77
2023/11/26 08:57:37;;;;;;;;;;;;;;;;;;5082307;28;19916;-78
2023/11/26 09:00:03;;;;;;;;;;;;;;;;;;5081806;28;19934;-77
2023/11/26 09:02:29;;;;;;;;;;;;;;;;;;5088455;28;19954;-78
2023/11/26 09:04:54;;;;;;;;;;;;;;;;;;5080279;28;19991;-78
2023/11/26 09:07:20;;;;;;;;;;;;;;;;;;5079848;28;19951;-78
2023/11/26 09:09:46;;;;;;;;;;;;;;;;;;5078532;28;20348;-78
2023/11/26 09:12:12;;;;;;;;;;;;;;;;;;5082829;28;20042;-78
2023/11/26 09:14:38;;;;;;;;;;;;;;;;;;5078421;28;19931;-78
2023/11/26 09:17:05;;;;;;;;;;;;;;;;;;5089751;28;20367;-79
2023/11/26 09:19:31;;;;;;;;;;;;;;;;;;5088622;28;19912;-79
2023/11/26 09:22:02;;;;;;;;;;;;;;;;;;5085040;28;19943;-78
2023/11/26 09:24:29;;;;;;;;;;;;;;;;;;5088070;28;19930;-77
2023/11/26 09:26:55;;;;;;;;;;;;;;;;;;5083357;28;19962;-81
2023/11/26 09:29:21;;;;;;;;;;;;;;;;;;5091830;28;19911;-77
2023/11/26 09:31:47;;;;;;;;;;;;;;;;;;5081710;28;19946;-78
2023/11/26 09:34:12;;;;;;;;;;;;;;;;;;5089403;28;19919;-78
2023/11/26 09:36:38;;;;;;;;;;;;;;;;;;5085085;28;19939;-77
2023/11/26 09:39:05;;;;;;;;;;;;;;;;;;5086260;28;19955;-77
2023/11/26 09:41:32;;;;;;;;;;;;;;;;;;5071692;28;19954;-85
2023/11/26 09:43:58;;;;;;;;;;;;;;;;;;5085685;28;19919;-82
2023/11/26 09:46:25;;;;;;;;;;;;;;;;;;5085067;28;20358;-84
2023/11/26 09:48:51;;;;;;;;;;;;;;;;;;5087838;28;19908;-84
2023/11/26 09:51:19;;;;;;;;;;;;;;;;;;5084797;28;19944;-80
2023/11/26 09:53:45;;;;;;;;;;;;;;;;;;5081635;28;19969;-83
2023/11/26 09:56:11;;;;;;;;;;;;;;;;;;5083263;28;19911;-83
2023/11/26 09:58:37;;;;;;;;;;;;;;;;;;5088619;28;19912;-83
2023/11/26 10:01:03;;;;;;;;;;;;;;;;;;5088488;28;19908;-83
2023/11/26 10:03:29;;;;;;;;;;;;;;;;;;5089201;28;19922;-83
2023/11/26 10:05:55;;;;;;;;;;;;;;;;;;5090779;28;20256;-82
2023/11/26 10:08:22;;;;;;;;;;;;;;;;;;5088883;28;20031;-83
2023/11/26 10:10:51;;;;;;;;;;;;;;;;;;5089827;28;20364;-84
2023/11/26 10:13:17;;;;;;;;;;;;;;;;;;5087739;28;19983;-83
2023/11/26 10:15:43;;;;;;;;;;;;;;;;;;5086461;28;20019;-83
2023/11/26 10:18:09;;;;;;;;;;;;;;;;;;5090541;28;19912;-84
2023/11/26 10:20:35;;;;;;;;;;;;;;;;;;5086243;28;19952;-86
2023/11/26 10:23:01;;;;;;;;;;;;;;;;;;5071719;28;20009;-84
2023/11/26 10:25:27;;;;;;;;;;;;;;;;;;5082798;28;19950;-83
2023/11/26 10:27:55;;;;;;;;;;;;;;;;;;5066588;28;20421;-83
2023/11/26 10:30:21;;;;;;;;;;;;;;;;;;5083915;28;20398;-83
2023/11/26 10:32:48;;;;;;;;;;;;;;;;;;5070702;28;19963;-83
2023/11/26 10:35:14;;;;;;;;;;;;;;;;;;5083151;28;19966;-83
2023/11/26 10:37:40;;;;;;;;;;;;;;;;;;5083171;28;19974;-83
2023/11/26 10:40:06;;;;;;;;;;;;;;;;;;5061037;28;19951;-83
2023/11/26 10:42:32;;;;;;;;;;;;;;;;;;5086364;28;20375;-84
2023/11/26 10:44:59;;;;;;;;;;;;;;;;;;5078704;28;19950;-84
2023/11/26 10:47:26;;;;;;;;;;;;;;;;;;5084515;28;19915;-85
2023/11/26 10:49:52;;;;;;;;;;;;;;;;;;5088779;28;20334;-84
2023/11/26 10:52:18;;;;;;;;;;;;;;;;;;5085936;28;19948;-82
2023/11/26 10:54:44;;;;;;;;;;;;;;;;;;5081783;28;19974;-83
2023/11/26 10:57:09;;;;;;;;;;;;;;;;;;5089777;28;19954;-83
2023/11/26 10:59:35;;;;;;;;;;;;;;;;;;5090359;28;19951;-83
2023/11/26 11:02:01;;;;;;;;;;;;;;;;;;5089639;28;19955;-78
2023/11/26 11:04:27;;;;;;;;;;;;;;;;;;5087458;28;19942;-77
2023/11/26 11:06:53;;;;;;;;;;;;;;;;;;5088528;28;19919;-77
2023/11/26 11:09:19;;;;;;;;;;;;;;;;;;5090054;28;19915;-76
2023/11/26 11:11:45;;;;;;;;;;;;;;;;;;5089610;28;19956;-76
2023/11/26 11:14:11;;;;;;;;;;;;;;;;;;5093100;28;19955;-77
2023/11/26 11:16:37;;;;;;;;;;;;;;;;;;5091334;28;19935;-78
2023/11/26 11:19:03;;;;;;;;;;;;;;;;;;5091617;28;20685;-76
2023/11/26 11:21:29;;;;;;;;;;;;;;;;;;5089862;28;19920;-76
2023/11/26 11:23:55;;;;;;;;;;;;;;;;;;5088720;28;20334;-77
2023/11/26 11:26:21;;;;;;;;;;;;;;;;;;5071097;28;20488;-76
2023/11/26 11:28:50;;;;;;;;;;;;;;;;;;5090190;28;19908;-77
2023/11/26 11:31:16;;;;;;;;;;;;;;;;;;5089872;28;19934;-77
2023/11/26 11:33:43;;;;;;;;;;;;;;;;;;5079606;28;19956;-76
2023/11/26 11:36:08;;;;;;;;;;;;;;;;;;5082939;28;19912;-77
2023/11/26 11:38:35;;;;;;;;;;;;;;;;;;5087719;28;19943;-76
2023/11/26 11:41:02;;;;;;;;;;;;;;;;;;5087982;28;20348;-77
2023/11/26 11:43:28;;;;;;;;;;;;;;;;;;5089372;28;20359;-78
2023/11/26 11:45:54;;;;;;;;;;;;;;;;;;5089200;28;19912;-77
2023/11/26 11:48:20;;;;;;;;;;;;;;;;;;5089113;28;19916;-76
2023/11/26 11:50:45;;;;;;;;;;;;;;;;;;5089189;28;20046;-76
2023/11/26 11:53:11;;;;;;;;;;;;;;;;;;5088771;28;19963;-77
2023/11/26 11:55:37;;;;;;;;;;;;;;;;;;5089493;28;19962;-77
2023/11/26 11:58:03;;;;;;;;;;;;;;;;;;5081071;28;20004;-75
2023/11/26 12:00:29;;;;;;;;;;;;;;;;;;5089216;28;20389;-76
2023/11/26 12:02:55;;;;;;;;;;;;;;;;;;5089815;28;20302;-77
2023/11/26 12:05:21;;;;;;;;;;;;;;;;;;5081407;28;20380;-77
2023/11/26 12:07:47;;;;;;;;;;;;;;;;;;5088316;28;19998;-75
2023/11/26 12:10:13;;;;;;;;;;;;;;;;;;5089288;28;19993;-75
2023/11/26 12:12:39;;;;;;;;;;;;;;;;;;5089201;28;19950;-77
2023/11/26 12:15:05;;;;;;;;;;;;;;;;;;5085648;28;19943;-77
2023/11/26 12:17:31;;;;;;;;;;;;;;;;;;5084427;28;20266;-76
2023/11/26 12:20:00;;;;;;;;;;;;;;;;;;5090626;28;19915;-76
2023/11/26 12:22:26;;;;;;;;;;;;;;;;;;5090499;28;20244;-76
2023/11/26 12:24:52;;;;;;;;;;;;;;;;;;5090428;28;19908;-76
2023/11/26 12:27:18;;;;;;;;;;;;;;;;;;5071388;28;19908;-78
2023/11/26 12:29:44;;;;;;;;;;;;;;;;;;5089422;28;20641;-75
2023/11/26 12:32:10;;;;;;;;;;;;;;;;;;5087933;28;19957;-75
2023/11/26 12:34:39;;;;;;;;;;;;;;;;;;5081672;28;19966;-75
2023/11/26 12:37:05;;;;;;;;;;;;;;;;;;5084091;28;19908;-77
2023/11/26 12:39:31;;;;;;;;;;;;;;;;;;5087704;28;20371;-78
2023/11/26 12:41:57;;;;;;;;;;;;;;;;;;5087802;28;19995;-78
2023/11/26 12:44:24;;;;;;;;;;;;;;;;;;5089183;28;19924;-77
2023/11/26 12:46:50;;;;;;;;;;;;;;;;;;5088719;28;19951;-77
2023/11/26 12:49:16;;;;;;;;;;;;;;;;;;5081647;28;20339;-79
2023/11/26 12:51:42;;;;;;;;;;;;;;;;;;5091941;28;19939;-78
2023/11/26 12:54:08;;;;;;;;;;;;;;;;;;5092434;28;19946;-76
2023/11/26 12:56:35;;;;;;;;;;;;;;;;;;5089407;28;19914;-76
2023/11/26 12:59:02;;;;;;;;;;;;;;;;;;5092052;28;20386;-76
2023/11/26 13:01:30;;;;;;;;;;;;;;;;;;5096985;28;19915;-77
2023/11/26 13:03:56;;;;;;;;;;;;;;;;;;5093348;28;19904;-76
2023/11/26 13:06:25;;;;;;;;;;;;;;;;;;5091412;28;19955;-76
2023/11/26 13:08:51;;;;;;;;;;;;;;;;;;5093291;28;20229;-76
2023/11/26 13:11:18;;;;;;;;;;;;;;;;;;5092923;28;19908;-78
2023/11/26 13:13:44;;;;;;;;;;;;;;;;;;5093289;28;19981;-77
2023/11/26 13:16:12;;;;;;;;;;;;;;;;;;5075048;28;20405;-77
2023/11/26 13:18:37;;;;;;;;;;;;;;;;;;5097710;28;20274;-78
2023/11/26 13:21:07;;;;;;;;;;;;;;;;;;5097998;28;19922;-77
2023/11/26 13:23:33;;;;;;;;;;;;;;;;;;5093369;28;20511;-74
2023/11/26 13:26:00;;;;;;;;;;;;;;;;;;5093245;28;19911;-78
2023/11/26 13:28:26;;;;;;;;;;;;;;;;;;5093046;28;20011;-77
2023/11/26 13:30:52;;;;;;;;;;;;;;;;;;5092497;28;20051;-77
2023/11/26 13:33:18;;;;;;;;;;;;;;;;;;5092253;28;19911;-77
2023/11/26 13:35:45;;;;;;;;;;;;;;;;;;5088505;28;19970;-78
2023/11/26 13:38:11;;;;;;;;;;;;;;;;;;5079177;28;19912;-77
2023/11/26 13:40:37;;;;;;;;;;;;;;;;;;5083987;28;20627;-79
2023/11/26 13:43:03;;;;;;;;;;;;;;;;;;5080257;28;20302;-78
2023/11/26 13:45:29;;;;;;;;;;;;;;;;;;5087376;28;19963;-77
2023/11/26 13:47:56;;;;;;;;;;;;;;;;;;5088388;28;19954;-80
2023/11/26 13:50:22;;;;;;;;;;;;;;;;;;5071768;28;20611;-81
2023/11/26 13:52:48;;;;;;;;;;;;;;;;;;5072695;28;19992;-78
2023/11/26 13:55:14;;;;;;;;;;;;;;;;;;5073799;28;20021;-76
2023/11/26 13:57:42;;;;;;;;;;;;;;;;;;5060290;28;19959;-76
2023/11/26 14:00:10;;;;;;;;;;;;;;;;;;5073074;28;19904;-77
2023/11/26 14:02:36;;;;;;;;;;;;;;;;;;5086313;28;20251;-77
2023/11/26 14:05:08;;;;;;;;;;;;;;;;;;5083670;28;19943;-77
2023/11/26 14:07:34;;;;;;;;;;;;;;;;;;5090607;28;20336;-80
2023/11/26 14:10:00;;;;;;;;;;;;;;;;;;5081523;28;19965;-81
2023/11/26 14:12:26;;;;;;;;;;;;;;;;;;5086066;28;20324;-79
2023/11/26 14:14:52;;;;;;;;;;;;;;;;;;5089328;28;20039;-78
2023/11/26 14:17:18;;;;;;;;;;;;;;;;;;5084395;28;20000;-78
2023/11/26 14:19:44;;;;;;;;;;;;;;;;;;5085421;28;19965;-79
2023/11/26 14:22:10;;;;;;;;;;;;;;;;;;5062440;28;20016;-79
2023/11/26 14:24:37;;;;;;;;;;;;;;;;;;5061766;28;20078;-79
2023/11/26 14:27:03;;;;;;;;;;;;;;;;;;5078854;28;19908;-77
2023/11/26 14:29:30;;;;;;;;;;;;;;;;;;5087902;28;19973;-80
2023/11/26 14:31:56;;;;;;;;;;;;;;;;;;5083534;28;19969;-81
2023/11/26 14:34:22;;;;;;;;;;;;;;;;;;5091290;28;19989;-78
2023/11/26 14:36:48;;;;;;;;;;;;;;;;;;5067804;28;20371;-78
2023/11/26 14:39:14;;;;;;;;;;;;;;;;;;5071867;28;19923;-77
2023/11/26 14:41:40;;;;;;;;;;;;;;;;;;5079011;28;20370;-78
2023/11/26 14:44:06;;;;;;;;;;;;;;;;;;5086037;28;19995;-84
2023/11/26 14:46:34;;;;;;;;;;;;;;;;;;5077736;28;19958;-84
2023/11/26 14:49:02;;;;;;;;;;;;;;;;;;5086122;28;20018;-82
2023/11/26 14:51:28;;;;;;;;;;;;;;;;;;5089078;28;19908;-84
2023/11/26 14:53:57;;;;;;;;;;;;;;;;;;5087864;28;19947;-85
2023/11/26 14:56:23;;;;;;;;;;;;;;;;;;5080808;28;20325;-87
2023/11/26 14:58:49;;;;;;;;;;;;;;;;;;5087770;28;19912;-86
2023/11/26 15:01:17;;;;;;;;;;;;;;;;;;5081284;28;19955;-87
2023/11/26 15:03:46;;;;;;;;;;;;;;;;;;5086182;28;19908;-86
2023/11/26 15:06:12;;;;;;;;;;;;;;;;;;5069284;28;19951;-87
2023/11/26 15:08:38;;;;;;;;;;;;;;;;;;5087759;28;19944;-86
2023/11/26 15:11:04;;;;;;;;;;;;;;;;;;5081214;28;20330;-87
2023/11/26 15:13:30;;;;;;;;;;;;;;;;;;5084081;28;20328;-87
2023/11/26 15:15:56;;;;;;;;;;;;;;;;;;5084860;28;20003;-86
2023/11/26 15:18:22;;;;;;;;;;;;;;;;;;5082380;28;20007;-86
2023/11/26 15:20:48;;;;;;;;;;;;;;;;;;5075334;28;19939;-87
2023/11/26 15:23:14;;;;;;;;;;;;;;;;;;5078122;28;20027;-86
2023/11/26 15:25:40;;;;;;;;;;;;;;;;;;5081535;28;19965;-85
2023/11/26 15:28:07;;;;;;;;;;;;;;;;;;5080291;28;20351;-85
2023/11/26 15:30:32;;;;;;;;;;;;;;;;;;5058915;28;19935;-86
2023/11/26 15:32:58;;;;;;;;;;;;;;;;;;5080519;28;19939;-86
2023/11/26 15:35:24;;;;;;;;;;;;;;;;;;5089061;28;19955;-86
2023/11/26 15:37:51;;;;;;;;;;;;;;;;;;5084070;28;19951;-86
2023/11/26 15:40:18;;;;;;;;;;;;;;;;;;5090606;28;19924;-86
2023/11/26 15:42:44;;;;;;;;;;;;;;;;;;5090392;28;19908;-86
2023/11/26 15:45:12;;;;;;;;;;;;;;;;;;5090139;28;20275;-86
2023/11/26 15:47:39;;;;;;;;;;;;;;;;;;5079137;28;19927;-86
2023/11/26 15:50:06;;;;;;;;;;;;;;;;;;5080650;28;20272;-86
2023/11/26 15:52:32;;;;;;;;;;;;;;;;;;5088629;28;20007;-86
2023/11/26 15:54:58;;;;;;;;;;;;;;;;;;5082596;28;20011;-86
2023/11/26 15:57:24;;;;;;;;;;;;;;;;;;5078902;28;20536;-86
2023/11/26 15:59:51;;;;;;;;;;;;;;;;;;5071843;28;20000;-86
2023/11/26 16:02:17;;;;;;;;;;;;;;;;;;5089797;28;19908;-86
2023/11/26 16:04:43;;;;;;;;;;;;;;;;;;5089973;28;20010;-86
2023/11/26 16:07:11;;;;;;;;;;;;;;;;;;5075550;28;20003;-86
2023/11/26 16:09:37;;;;;;;;;;;;;;;;;;5089464;28;20042;-85
2023/11/26 16:12:10;;;;;;;;;;;;;;;;;;5063197;28;19983;-87
2023/11/26 16:14:36;;;;;;;;;;;;;;;;;;5070944;28;19920;-86
2023/11/26 16:17:02;;;;;;;;;;;;;;;;;;5081161;28;19935;-85
2023/11/26 16:19:34;;;;;;;;;;;;;;;;;;5089632;28;20356;-86
2023/11/26 16:22:00;;;;;;;;;;;;;;;;;;5089744;28;19966;-87
2023/11/26 16:24:27;;;;;;;;;;;;;;;;;;5078751;28;20338;-87
2023/11/26 16:26:53;;;;;;;;;;;;;;;;;;5075382;28;19919;-86
2023/11/26 16:29:22;;;;;;;;;;;;;;;;;;5068092;28;20364;-86
2023/11/26 16:31:48;;;;;;;;;;;;;;;;;;5089461;28;20010;-86
2023/11/26 16:34:14;;;;;;;;;;;;;;;;;;5085977;28;19961;-86
2023/11/26 16:36:41;;;;;;;;;;;;;;;;;;5093054;28;20252;-86
2023/11/26 16:39:08;;;;;;;;;;;;;;;;;;5074644;28;19930;-86
2023/11/26 16:41:34;;;;;;;;;;;;;;;;;;5086888;28;19912;-86